createdAt,value
2023-04-29T00:01:27.100Z,7.42
2023-04-29T00:03:54.713Z,7.41
2023-04-29T00:06:22.531Z,7.40
2023-04-29T00:08:49.981Z,7.38
2023-04-29T00:11:18.168Z,7.37
2023-04-29T00:13:45.292Z,7.36
2023-04-29T00:16:12.452Z,7.34
2023-04-29T00:18:39.625Z,7.33
2023-04-29T00:21:06.764Z,7.30
2023-04-29T00:23:34.301Z,7.30
2023-04-29T00:26:04.334Z,7.29
2023-04-29T00:28:31.255Z,7.28
2023-04-29T00:30:58.283Z,7.27
2023-04-29T00:33:25.469Z,7.28
2023-04-29T00:35:52.532Z,7.28
2023-04-29T00:38:19.432Z,7.29
2023-04-29T00:40:46.360Z,7.28
2023-04-29T00:43:13.899Z,7.26
2023-04-29T00:45:41.199Z,7.26
2023-04-29T00:48:08.430Z,7.28
2023-04-29T00:50:36.965Z,7.29
2023-04-29T00:53:04.236Z,7.28
2023-04-29T00:55:31.816Z,7.27
2023-04-29T00:57:59.246Z,7.27
2023-04-29T01:00:27.033Z,7.27
2023-04-29T01:02:57.336Z,7.27
2023-04-29T01:05:24.759Z,7.27
2023-04-29T01:08:11.065Z,7.24
2023-04-29T01:11:04.161Z,7.23
2023-04-29T01:13:52.051Z,7.20
2023-04-29T01:16:24.718Z,7.19
2023-04-29T01:18:58.856Z,7.17
2023-04-29T01:21:32.374Z,7.15
2023-04-29T01:23:59.762Z,7.14
2023-04-29T01:26:31.915Z,7.15
2023-04-29T01:29:10.042Z,7.17
2023-04-29T01:31:45.338Z,7.16
2023-04-29T01:34:20.490Z,7.14
2023-04-29T01:36:51.868Z,7.13
2023-04-29T01:39:26.085Z,7.12
2023-04-29T01:42:25.542Z,7.12
2023-04-29T01:44:53.963Z,7.10
2023-04-29T01:47:22.845Z,7.09
2023-04-29T01:49:55.273Z,7.08
2023-04-29T01:52:23.381Z,7.09
2023-04-29T01:54:55.012Z,7.10
2023-04-29T01:57:22.604Z,7.09
2023-04-29T01:59:57.564Z,7.09
2023-04-29T02:02:48.700Z,7.10
2023-04-29T02:05:24.210Z,7.09
2023-04-29T02:07:55.510Z,7.07
2023-04-29T02:10:22.890Z,7.04
2023-04-29T02:12:54.348Z,7.04
2023-04-29T02:15:22.119Z,7.04
2023-04-29T02:17:49.788Z,7.03
2023-04-29T02:20:21.348Z,7.02
2023-04-29T02:22:48.861Z,7.01
2023-04-29T02:25:16.674Z,7.00
2023-04-29T02:27:44.145Z,6.99
2023-04-29T02:30:11.984Z,6.97
2023-04-29T02:32:40.841Z,6.95
2023-04-29T02:35:08.778Z,6.94
2023-04-29T02:37:36.239Z,6.93
2023-04-29T02:40:03.902Z,6.93
2023-04-29T02:42:31.349Z,6.95
2023-04-29T02:45:01.779Z,6.95
2023-04-29T02:47:29.242Z,6.97
2023-04-29T02:49:56.771Z,6.98
2023-04-29T02:52:24.468Z,7.00
2023-04-29T02:54:51.942Z,7.02
2023-04-29T02:57:19.225Z,7.03
2023-04-29T02:59:46.726Z,7.04
2023-04-29T03:02:14.872Z,7.04
2023-04-29T03:04:43.084Z,7.04
2023-04-29T03:07:10.636Z,7.02
2023-04-29T03:09:38.167Z,7.00
2023-04-29T03:12:05.525Z,6.99
2023-04-29T03:14:32.869Z,6.98
2023-04-29T03:17:00.391Z,6.98
2023-04-29T03:19:27.744Z,6.99
2023-04-29T03:21:55.544Z,7.01
2023-04-29T03:24:23.138Z,7.02
2023-04-29T03:26:50.696Z,7.01
2023-04-29T03:29:19.946Z,7.01
2023-04-29T03:31:47.873Z,7.01
2023-04-29T03:34:15.563Z,7.01
2023-04-29T03:36:46.497Z,7.01
2023-04-29T03:39:13.930Z,7.04
2023-04-29T03:41:41.286Z,7.05
2023-04-29T03:44:09.481Z,7.06
2023-04-29T03:46:36.987Z,7.08
2023-04-29T03:49:04.556Z,7.09
2023-04-29T03:51:32.161Z,7.09
2023-04-29T03:54:10.114Z,7.08
2023-04-29T03:56:37.743Z,7.04
2023-04-29T03:59:05.559Z,7.01
2023-04-29T04:01:33.548Z,7.01
2023-04-29T04:04:01.301Z,7.01
2023-04-29T04:06:29.272Z,6.99
2023-04-29T04:08:57.926Z,6.99
2023-04-29T04:11:28.756Z,7.01
2023-04-29T04:14:02.622Z,7.05
2023-04-29T04:16:30.201Z,7.07
2023-04-29T04:18:57.720Z,7.10
2023-04-29T04:21:25.602Z,7.12
2023-04-29T04:23:58.903Z,7.13
2023-04-29T04:26:26.624Z,7.14
2023-04-29T04:28:53.654Z,7.14
2023-04-29T04:31:46.810Z,7.12
2023-04-29T04:34:15.152Z,7.12
2023-04-29T04:36:43.083Z,7.12
2023-04-29T04:39:10.662Z,7.14
2023-04-29T04:41:39.159Z,7.17
2023-04-29T04:44:06.587Z,7.20
2023-04-29T04:46:54.044Z,7.23
2023-04-29T04:49:54.280Z,7.22
2023-04-29T04:52:22.472Z,7.26
2023-04-29T04:54:56.993Z,7.27
2023-04-29T04:57:26.611Z,7.30
2023-04-29T04:59:55.600Z,7.34
2023-04-29T05:02:23.144Z,7.36
2023-04-29T05:04:50.603Z,7.38
2023-04-29T05:07:18.919Z,7.37
2023-04-29T05:10:06.956Z,7.40
2023-04-29T05:12:37.273Z,7.42
2023-04-29T05:15:04.960Z,7.45
2023-04-29T05:17:32.579Z,7.48
2023-04-29T05:20:00.055Z,7.50
2023-04-29T05:22:27.303Z,7.50
2023-04-29T05:24:55.548Z,7.52
2023-04-29T05:27:23.521Z,7.51
2023-04-29T05:29:50.991Z,7.53
2023-04-29T05:32:18.786Z,7.54
2023-04-29T05:34:46.697Z,7.55
2023-04-29T05:37:14.207Z,7.56
2023-04-29T05:39:58.632Z,7.58
2023-04-29T05:42:26.531Z,7.58
2023-04-29T05:44:54.084Z,7.61
2023-04-29T05:47:21.823Z,7.61
2023-04-29T05:49:50.177Z,7.61
2023-04-29T05:52:17.607Z,7.64
2023-04-29T05:54:47.106Z,7.65
2023-04-29T05:57:14.442Z,7.66
2023-04-29T05:59:41.935Z,7.67
2023-04-29T06:02:11.133Z,7.71
2023-04-29T06:04:41.771Z,7.75
2023-04-29T06:07:28.293Z,7.81
2023-04-29T06:10:01.138Z,7.83
2023-04-29T06:12:29.826Z,7.85
2023-04-29T06:14:58.747Z,7.88
2023-04-29T06:17:29.581Z,7.93
2023-04-29T06:19:57.053Z,7.99
2023-04-29T06:22:24.771Z,8.02
2023-04-29T06:24:54.681Z,8.06
2023-04-29T06:27:40.259Z,8.12
2023-04-29T06:30:08.481Z,8.16
2023-04-29T06:32:36.409Z,8.18
2023-04-29T06:35:04.260Z,8.20
2023-04-29T06:37:51.057Z,8.23
2023-04-29T06:40:32.981Z,8.23
2023-04-29T06:43:13.052Z,8.22
2023-04-29T06:46:07.242Z,8.22
2023-04-29T06:48:40.308Z,8.25
2023-04-29T06:51:08.513Z,8.28
2023-04-29T06:53:37.851Z,8.30
2023-04-29T06:56:07.181Z,8.30
2023-04-29T06:58:34.638Z,8.32
2023-04-29T07:01:04.384Z,8.33
2023-04-29T07:03:32.643Z,8.37
2023-04-29T07:05:59.947Z,8.34
2023-04-29T07:08:28.894Z,8.31
2023-04-29T07:10:57.154Z,8.30
2023-04-29T07:13:25.623Z,8.32
2023-04-29T07:15:53.033Z,8.35
2023-04-29T07:18:20.289Z,8.39
2023-04-29T07:20:48.338Z,8.40
2023-04-29T07:23:15.907Z,8.44
2023-04-29T07:25:43.400Z,8.53
2023-04-29T07:28:11.109Z,8.57
2023-04-29T07:30:38.851Z,8.56
2023-04-29T07:33:06.471Z,8.54
2023-04-29T07:35:34.284Z,8.53
2023-04-29T07:38:01.747Z,8.50
2023-04-29T07:40:31.209Z,8.48
2023-04-29T07:42:58.816Z,8.49
2023-04-29T07:45:26.361Z,8.48
2023-04-29T07:47:53.597Z,8.47
2023-04-29T07:50:21.538Z,8.47
2023-04-29T07:52:48.852Z,8.47
2023-04-29T07:55:18.021Z,8.47
2023-04-29T07:57:45.517Z,8.51
2023-04-29T08:00:13.861Z,8.52
2023-04-29T08:02:45.744Z,8.54
2023-04-29T08:05:15.409Z,8.53
2023-04-29T08:07:42.663Z,8.53
2023-04-29T08:10:10.046Z,8.58
2023-04-29T08:12:38.217Z,8.57
2023-04-29T08:15:07.722Z,8.57
2023-04-29T08:17:36.488Z,8.58
2023-04-29T08:20:04.358Z,8.60
2023-04-29T08:22:32.039Z,8.59
2023-04-29T08:24:59.196Z,8.58
2023-04-29T08:27:27.089Z,8.56
2023-04-29T08:29:54.852Z,8.56
2023-04-29T08:32:23.094Z,8.55
2023-04-29T08:34:50.293Z,8.54
2023-04-29T08:37:18.597Z,8.53
2023-04-29T08:39:49.276Z,8.56
2023-04-29T08:42:16.304Z,8.56
2023-04-29T08:44:43.406Z,8.58
2023-04-29T08:47:10.522Z,8.60
2023-04-29T08:49:38.515Z,8.62
2023-04-29T08:52:06.735Z,8.65
2023-04-29T08:54:34.184Z,8.66
2023-04-29T08:57:03.013Z,8.66
2023-04-29T08:59:30.347Z,8.65
2023-04-29T09:01:57.984Z,8.65
2023-04-29T09:04:35.158Z,8.66
2023-04-29T09:07:02.715Z,8.64
2023-04-29T09:09:30.227Z,8.63
2023-04-29T09:11:57.578Z,8.62
2023-04-29T09:14:24.882Z,8.62
2023-04-29T09:16:52.469Z,8.66
2023-04-29T09:19:36.155Z,8.71
2023-04-29T09:22:04.191Z,8.75
2023-04-29T09:24:32.013Z,8.80
2023-04-29T09:26:59.890Z,8.79
2023-04-29T09:29:27.340Z,8.79
2023-04-29T09:31:54.967Z,8.78
2023-04-29T09:34:33.096Z,8.78
2023-04-29T09:37:00.524Z,8.76
2023-04-29T09:39:28.044Z,8.72
2023-04-29T09:41:55.435Z,8.68
2023-04-29T09:44:27.464Z,8.64
2023-04-29T09:46:59.781Z,8.63
2023-04-29T09:49:28.578Z,8.62
2023-04-29T09:52:01.401Z,8.60
2023-04-29T09:54:30.691Z,8.59
2023-04-29T09:56:59.630Z,8.61
2023-04-29T09:59:27.161Z,8.58
2023-04-29T10:01:56.819Z,8.57
2023-04-29T10:04:26.038Z,8.60
2023-04-29T10:06:54.639Z,8.61
2023-04-29T10:09:22.931Z,8.64
2023-04-29T10:11:51.305Z,8.68
2023-04-29T10:14:19.732Z,8.72
2023-04-29T10:17:02.854Z,8.74
2023-04-29T10:19:46.585Z,8.76
2023-04-29T10:22:19.590Z,8.79
2023-04-29T10:24:47.054Z,8.78
2023-04-29T10:27:14.661Z,8.75
2023-04-29T10:29:42.171Z,8.72
2023-04-29T10:32:12.798Z,8.70
2023-04-29T10:34:40.807Z,8.70
2023-04-29T10:37:11.600Z,8.71
2023-04-29T10:40:04.098Z,8.72
2023-04-29T10:42:48.820Z,8.73
2023-04-29T10:45:31.980Z,8.72
2023-04-29T10:48:03.553Z,8.73
2023-04-29T10:50:31.924Z,8.74
2023-04-29T10:53:02.339Z,8.73
2023-04-29T10:55:29.828Z,8.75
2023-04-29T10:57:57.420Z,8.74
2023-04-29T11:00:29.005Z,8.75
2023-04-29T11:03:00.765Z,8.74
2023-04-29T11:05:35.867Z,8.75
2023-04-29T11:08:24.520Z,8.77
2023-04-29T11:10:55.967Z,8.77
2023-04-29T11:13:30.929Z,8.74
2023-04-29T11:16:08.525Z,8.70
2023-04-29T11:19:07.967Z,8.67
2023-04-29T11:21:36.442Z,8.65
2023-04-29T11:24:07.196Z,8.63
2023-04-29T11:26:35.573Z,8.62
2023-04-29T11:29:02.924Z,8.61
2023-04-29T11:31:31.866Z,8.63
2023-04-29T11:34:00.091Z,8.66
2023-04-29T11:36:28.002Z,8.66
2023-04-29T11:38:56.134Z,8.67
2023-04-29T11:41:23.759Z,8.67
2023-04-29T11:43:59.013Z,8.69
2023-04-29T11:46:28.469Z,8.69
2023-04-29T11:48:57.681Z,8.67
2023-04-29T11:51:25.261Z,8.65
2023-04-29T11:53:52.862Z,8.63
2023-04-29T11:56:26.712Z,8.60
2023-04-29T11:58:56.496Z,8.60
2023-04-29T12:01:24.079Z,8.63
2023-04-29T12:03:51.859Z,8.65
2023-04-29T12:06:19.513Z,8.68
2023-04-29T12:08:47.380Z,8.70
2023-04-29T12:11:14.854Z,8.70
2023-04-29T12:13:42.316Z,8.72
2023-04-29T12:16:11.155Z,8.74
2023-04-29T12:18:39.228Z,8.75
2023-04-29T12:21:07.450Z,8.76
2023-04-29T12:23:35.754Z,8.77
2023-04-29T12:26:03.720Z,8.80
2023-04-29T12:28:31.132Z,8.86
2023-04-29T12:30:58.842Z,8.92
2023-04-29T12:33:27.748Z,8.96
2023-04-29T12:35:57.179Z,8.98
2023-04-29T12:38:31.291Z,8.98
2023-04-29T12:40:59.710Z,8.96
2023-04-29T12:43:31.054Z,8.94
2023-04-29T12:46:06.559Z,8.94
2023-04-29T12:48:35.141Z,8.94
2023-04-29T12:51:02.828Z,8.95
2023-04-29T12:53:30.426Z,8.94
2023-04-29T12:55:58.077Z,8.95
2023-04-29T12:58:25.499Z,8.97
2023-04-29T13:00:52.873Z,8.96
2023-04-29T13:03:22.163Z,8.94
2023-04-29T13:05:52.858Z,8.92
2023-04-29T13:08:21.049Z,8.91
2023-04-29T13:10:51.785Z,8.92
2023-04-29T13:13:19.338Z,8.95
2023-04-29T13:15:47.028Z,8.98
2023-04-29T13:18:14.498Z,8.99
2023-04-29T13:20:42.712Z,9.01
2023-04-29T13:23:13.218Z,9.02
2023-04-29T13:25:41.111Z,9.04
2023-04-29T13:28:08.695Z,9.06
2023-04-29T13:30:39.531Z,9.05
2023-04-29T13:33:12.197Z,9.07
2023-04-29T13:35:42.011Z,9.11
2023-04-29T13:40:58.813Z,9.07
2023-04-29T13:43:36.006Z,9.07
2023-04-29T13:46:07.760Z,9.07
2023-04-29T13:49:14.065Z,9.05
2023-04-29T13:52:09.724Z,9.03
2023-04-29T13:54:53.455Z,9.05
2023-04-29T13:59:44.378Z,9.10
2023-04-29T14:02:24.777Z,9.13
2023-04-29T14:04:54.452Z,9.13
2023-04-29T14:07:22.780Z,9.14
2023-04-29T14:09:50.322Z,9.15
2023-04-29T14:12:17.791Z,9.16
2023-04-29T14:14:45.192Z,9.19
2023-04-29T14:17:12.582Z,9.21
2023-04-29T14:19:40.153Z,9.21
2023-04-29T14:22:07.490Z,9.22
2023-04-29T14:24:34.868Z,9.23
2023-04-29T14:27:02.467Z,9.24
2023-04-29T14:29:30.016Z,9.25
2023-04-29T14:31:57.751Z,9.27
2023-04-29T14:34:25.314Z,9.29
2023-04-29T14:36:52.577Z,9.33
2023-04-29T14:39:19.885Z,9.34
2023-04-29T14:41:49.517Z,9.34
2023-04-29T14:44:17.094Z,9.37
2023-04-29T14:46:44.644Z,9.39
2023-04-29T14:49:12.535Z,9.42
2023-04-29T14:51:39.955Z,9.45
2023-04-29T14:54:07.905Z,9.46
2023-04-29T14:56:36.944Z,9.48
2023-04-29T14:59:04.197Z,9.47
2023-04-29T15:01:32.421Z,9.46
2023-04-29T15:04:01.633Z,9.46
2023-04-29T15:06:29.623Z,9.46
2023-04-29T15:08:57.830Z,9.47
2023-04-29T15:11:26.222Z,9.47
2023-04-29T15:13:53.596Z,9.45
2023-04-29T15:16:21.081Z,9.43
2023-04-29T15:18:48.510Z,9.41
2023-04-29T15:21:16.125Z,9.39
2023-04-29T15:23:43.669Z,9.39
2023-04-29T15:26:11.312Z,9.38
2023-04-29T15:28:38.893Z,9.38
2023-04-29T15:31:06.339Z,9.38
2023-04-29T15:33:34.693Z,9.37
2023-04-29T15:36:06.483Z,9.36
2023-04-29T15:38:33.987Z,9.35
2023-04-29T15:41:03.004Z,9.34
2023-04-29T15:43:30.870Z,9.33
2023-04-29T15:45:59.703Z,9.33
2023-04-29T15:48:27.651Z,9.33
2023-04-29T15:50:55.009Z,9.34
2023-04-29T15:53:23.467Z,9.33
2023-04-29T15:55:51.394Z,9.32
2023-04-29T15:58:18.817Z,9.30
2023-04-29T16:00:47.400Z,9.28
2023-04-29T16:03:14.999Z,9.27
2023-04-29T16:05:42.456Z,9.26
2023-04-29T16:08:09.920Z,9.26
2023-04-29T16:10:37.684Z,9.25
2023-04-29T16:13:05.040Z,9.24
2023-04-29T16:15:32.908Z,9.23
2023-04-29T16:18:01.680Z,9.23
2023-04-29T16:20:29.374Z,9.24
2023-04-29T16:22:57.119Z,9.23
2023-04-29T16:25:24.486Z,9.23
2023-04-29T16:27:52.092Z,9.23
2023-04-29T16:30:19.451Z,9.25
2023-04-29T16:32:47.157Z,9.26
2023-04-29T16:35:14.592Z,9.26
2023-04-29T16:37:41.871Z,9.27
2023-04-29T16:40:10.469Z,9.27
2023-04-29T16:42:37.916Z,9.27
2023-04-29T16:45:05.564Z,9.27
2023-04-29T16:47:32.970Z,9.26
2023-04-29T16:50:00.680Z,9.25
2023-04-29T16:52:28.185Z,9.23
2023-04-29T16:54:57.443Z,9.23
2023-04-29T16:57:26.739Z,9.22
2023-04-29T16:59:59.982Z,9.20
2023-04-29T17:02:31.401Z,9.18
2023-04-29T17:04:59.027Z,9.16
2023-04-29T17:07:26.938Z,9.12
2023-04-29T17:09:54.560Z,9.06
2023-04-29T17:12:22.357Z,9.03
2023-04-29T17:14:52.721Z,9.00
2023-04-29T17:17:20.425Z,8.99
2023-04-29T17:19:50.313Z,8.98
2023-04-29T17:22:17.862Z,8.96
2023-04-29T17:24:46.317Z,8.96
2023-04-29T17:27:13.709Z,8.97
2023-04-29T17:29:41.101Z,8.97
2023-04-29T17:32:13.514Z,8.96
2023-04-29T17:34:41.047Z,8.96
2023-04-29T17:37:08.652Z,8.96
2023-04-29T17:39:36.235Z,8.96
2023-04-29T17:42:03.870Z,8.96
2023-04-29T17:44:31.487Z,8.96
2023-04-29T17:46:59.032Z,8.96
2023-04-29T17:49:27.104Z,8.96
2023-04-29T17:51:55.084Z,8.95
2023-04-29T17:54:22.709Z,8.95
2023-04-29T17:56:50.216Z,8.95
2023-04-29T17:59:17.776Z,8.94
2023-04-29T18:01:45.643Z,8.94
2023-04-29T18:04:13.460Z,8.94
2023-04-29T18:06:41.465Z,8.93
2023-04-29T18:09:09.822Z,8.92
2023-04-29T18:11:37.574Z,8.93
2023-04-29T18:14:05.077Z,8.92
2023-04-29T18:16:32.745Z,8.91
2023-04-29T18:19:00.135Z,8.91
2023-04-29T18:21:28.315Z,8.91
2023-04-29T18:23:56.214Z,8.90
2023-04-29T18:26:23.741Z,8.90
2023-04-29T18:28:51.410Z,8.89
2023-04-29T18:31:19.186Z,8.88
2023-04-29T18:33:46.799Z,8.87
2023-04-29T18:36:17.211Z,8.84
2023-04-29T18:38:44.582Z,8.82
2023-04-29T18:41:12.287Z,8.78
2023-04-29T18:43:39.834Z,8.74
2023-04-29T18:46:07.457Z,8.71
2023-04-29T18:48:36.212Z,8.68
2023-04-29T18:51:04.580Z,8.66
2023-04-29T18:53:32.248Z,8.63
2023-04-29T18:55:59.960Z,8.60
2023-04-29T18:58:27.747Z,8.56
2023-04-29T19:00:55.091Z,8.55
2023-04-29T19:03:22.662Z,8.54
2023-04-29T19:05:50.974Z,8.53
2023-04-29T19:08:18.608Z,8.51
2023-04-29T19:10:46.532Z,8.50
2023-04-29T19:13:13.879Z,8.49
2023-04-29T19:15:41.668Z,8.48
2023-04-29T19:18:09.118Z,8.49
2023-04-29T19:20:36.538Z,8.49
2023-04-29T19:23:04.009Z,8.49
2023-04-29T19:25:32.149Z,8.49
2023-04-29T19:27:59.539Z,8.49
2023-04-29T19:30:26.973Z,8.50
2023-04-29T19:32:54.391Z,8.49
2023-04-29T19:35:21.901Z,8.49
2023-04-29T19:37:49.278Z,8.50
2023-04-29T19:40:16.693Z,8.48
2023-04-29T19:42:44.016Z,8.47
2023-04-29T19:45:12.919Z,8.47
2023-04-29T19:47:40.736Z,8.47
2023-04-29T19:50:08.552Z,8.47
2023-04-29T19:52:36.189Z,8.48
2023-04-29T19:55:05.229Z,8.47
2023-04-29T19:57:33.406Z,8.46
2023-04-29T20:00:01.591Z,8.45
2023-04-29T20:02:29.222Z,8.45
2023-04-29T20:04:56.836Z,8.45
2023-04-29T20:07:24.473Z,8.44
2023-04-29T20:09:52.231Z,8.43
2023-04-29T20:12:19.803Z,8.42
2023-04-29T20:14:47.528Z,8.42
2023-04-29T20:17:16.886Z,8.41
2023-04-29T20:19:45.074Z,8.41
2023-04-29T20:22:13.557Z,8.41
2023-04-29T20:24:41.789Z,8.41
2023-04-29T20:27:09.325Z,8.40
2023-04-29T20:29:37.384Z,8.39
2023-04-29T20:32:06.216Z,8.37
2023-04-29T20:34:33.684Z,8.35
2023-04-29T20:37:01.694Z,8.31
2023-04-29T20:39:29.112Z,8.25
2023-04-29T20:41:57.249Z,8.20
2023-04-29T20:44:25.720Z,8.13
2023-04-29T20:46:53.386Z,8.08
2023-04-29T20:49:21.075Z,8.05
2023-04-29T20:51:49.612Z,8.02
2023-04-29T20:54:17.173Z,8.00
2023-04-29T20:56:44.721Z,7.98
2023-04-29T20:59:12.370Z,7.96
2023-04-29T21:01:39.792Z,7.94
2023-04-29T21:04:07.306Z,7.92
2023-04-29T21:06:34.799Z,7.89
2023-04-29T21:09:02.422Z,7.86
2023-04-29T21:11:29.818Z,7.83
2023-04-29T21:13:57.413Z,7.82
2023-04-29T21:16:25.347Z,7.81
2023-04-29T21:18:52.769Z,7.79
2023-04-29T21:21:20.077Z,7.78
2023-04-29T21:23:47.580Z,7.77
2023-04-29T21:26:15.348Z,7.75
2023-04-29T21:28:42.684Z,7.72
2023-04-29T21:31:15.513Z,7.71
2023-04-29T21:33:44.010Z,7.71
2023-04-29T21:36:11.479Z,7.70
2023-04-29T21:38:39.221Z,7.69
2023-04-29T21:41:07.065Z,7.69
2023-04-29T21:43:34.461Z,7.67
2023-04-29T21:46:01.903Z,7.65
2023-04-29T21:48:29.499Z,7.64
2023-04-29T21:50:56.788Z,7.61
2023-04-29T21:53:24.240Z,7.60
2023-04-29T21:55:51.978Z,7.58
2023-04-29T21:58:21.231Z,7.58
2023-04-29T22:00:58.585Z,7.58
2023-04-29T22:03:26.178Z,7.59
2023-04-29T22:05:53.587Z,7.60
2023-04-29T22:08:21.081Z,7.61
2023-04-29T22:10:48.347Z,7.61
2023-04-29T22:13:15.940Z,7.59
2023-04-29T22:15:43.545Z,7.57
2023-04-29T22:18:10.911Z,7.58
2023-04-29T22:20:38.379Z,7.57
2023-04-29T22:23:05.741Z,7.57
2023-04-29T22:25:33.206Z,7.58
2023-04-29T22:28:01.140Z,7.57
2023-04-29T22:30:28.555Z,7.55
2023-04-29T22:32:57.066Z,7.53
2023-04-29T22:35:24.589Z,7.51
2023-04-29T22:37:52.450Z,7.49
2023-04-29T22:40:19.988Z,7.48
2023-04-29T22:42:47.362Z,7.48
2023-04-29T22:45:14.678Z,7.46
2023-04-29T22:47:43.458Z,7.44
2023-04-29T22:50:11.261Z,7.42
2023-04-29T22:52:38.630Z,7.40
2023-04-29T22:55:06.367Z,7.37
2023-04-29T22:57:34.020Z,7.36
2023-04-29T23:00:01.325Z,7.35
2023-04-29T23:02:29.950Z,7.34
2023-04-29T23:04:57.970Z,7.30
2023-04-29T23:07:25.944Z,7.29
2023-04-29T23:09:53.436Z,7.28
2023-04-29T23:12:21.368Z,7.27
2023-04-29T23:14:51.077Z,7.25
2023-04-29T23:17:18.553Z,7.23
2023-04-29T23:19:46.256Z,7.22
2023-04-29T23:22:13.761Z,7.20
2023-04-29T23:24:41.406Z,7.19
2023-04-29T23:27:08.907Z,7.18
2023-04-29T23:29:36.454Z,7.16
2023-04-29T23:32:04.091Z,7.16
2023-04-29T23:34:31.491Z,7.18
2023-04-29T23:37:01.454Z,7.17
2023-04-29T23:39:29.080Z,7.15
2023-04-29T23:41:56.724Z,7.13
2023-04-29T23:44:25.414Z,7.15
2023-04-29T23:46:53.900Z,7.16
2023-04-29T23:49:21.534Z,7.14
2023-04-29T23:51:48.806Z,7.11
2023-04-29T23:54:16.480Z,7.09
2023-04-29T23:56:43.908Z,7.09
2023-04-29T23:59:11.387Z,7.08
